Time;durP1;ratioP1;P1;durP2;ratioP2;P2;SDS_P1;SDS_P2;PMS_P1;PMS_P2;Temp;Humidity;BMP_temperature;BMP_pressure;BME280_temperature;BME280_humidity;BME280_pressure;Samples;Min_cycle;Max_cycle;Signal;HPM_P1;HPM_P2
2024/04/11 00:00:50;;;;;;;7.07;3.55;;;;;;;;;;5487514;26;20299;-62
2024/04/11 00:03:16;;;;;;;2.97;2.47;;;;;;;;;;5484784;26;20227;-62
2024/04/11 00:05:44;;;;;;;3.53;2.75;;;;;;;;;;5487856;26;20290;-62
2024/04/11 00:08:10;;;;;;;3.75;3.38;;;;;;;;;;5484998;26;20235;-62
2024/04/11 00:10:39;;;;;;;3.97;2.40;;;;;;;;;;5487017;26;20680;-62
2024/04/11 00:13:04;;;;;;;2.38;2.17;;;;;;;;;;5484624;26;20822;-62
2024/04/11 00:15:33;;;;;;;2.80;2.22;;;;;;;;;;5486864;26;20265;-63
2024/04/11 00:18:02;;;;;;;3.72;2.35;;;;;;;;;;5484931;26;20734;-62
2024/04/11 00:20:30;;;;;;;2.42;2.22;;;;;;;;;;5486967;26;20231;-63
2024/04/11 00:22:56;;;;;;;2.70;2.35;;;;;;;;;;5485429;26;20227;-63
2024/04/11 00:25:24;;;;;;;3.25;2.30;;;;;;;;;;5487550;26;20273;-62
2024/04/11 00:27:49;;;;;;;3.67;2.80;;;;;;;;;;5485076;26;20294;-63
2024/04/11 00:30:18;;;;;;;2.63;2.38;;;;;;;;;;5486529;26;20454;-62
2024/04/11 00:32:43;;;;;;;3.25;2.70;;;;;;;;;;5484759;26;20280;-62
2024/04/11 00:35:15;;;;;;;2.55;2.03;;;;;;;;;;5486966;26;20234;-63
2024/04/11 00:37:43;;;;;;;3.47;2.10;;;;;;;;;;5484389;26;20715;-62
2024/04/11 00:40:11;;;;;;;2.25;1.38;;;;;;;;;;5486698;26;20265;-62
2024/04/11 00:42:37;;;;;;;2.42;1.75;;;;;;;;;;5422760;26;20727;-62
2024/04/11 00:45:07;;;;;;;2.95;1.90;;;;;;;;;;5487024;26;20226;-63
2024/04/11 00:47:33;;;;;;;3.90;2.13;;;;;;;;;;5484258;26;20227;-63
2024/04/11 00:50:01;;;;;;;1.75;1.55;;;;;;;;;;5486954;26;20226;-62
2024/04/11 00:52:33;;;;;;;2.67;1.50;;;;;;;;;;5483831;26;20234;-62
2024/04/11 00:54:59;;;;;;;1.17;1.08;;;;;;;;;;5422715;26;20219;-63
2024/04/11 00:57:27;;;;;;;2.08;1.80;;;;;;;;;;5486841;26;20342;-63
2024/04/11 00:59:53;;;;;;;1.20;1.13;;;;;;;;;;5484106;26;20227;-63
2024/04/11 01:02:21;;;;;;;1.58;1.48;;;;;;;;;;5486635;26;20342;-63
2024/04/11 01:04:47;;;;;;;1.95;1.73;;;;;;;;;;5484194;26;20214;-63
2024/04/11 01:07:15;;;;;;;1.60;1.50;;;;;;;;;;5486702;26;20231;-63
2024/04/11 01:09:44;;;;;;;2.35;1.63;;;;;;;;;;5483992;26;20226;-63
2024/04/11 01:12:13;;;;;;;2.50;2.30;;;;;;;;;;5486764;26;20281;-63
2024/04/11 01:14:39;;;;;;;3.67;2.78;;;;;;;;;;5483739;26;20230;-63
2024/04/11 01:17:10;;;;;;;2.80;2.13;;;;;;;;;;5485931;26;20219;-63
2024/04/11 01:19:36;;;;;;;4.82;2.40;;;;;;;;;;5483904;26;20274;-63
2024/04/11 01:22:05;;;;;;;4.30;3.03;;;;;;;;;;5486169;26;20231;-62
2024/04/11 01:24:34;;;;;;;3.78;2.90;;;;;;;;;;5482797;26;20348;-63
2024/04/11 01:27:02;;;;;;;5.55;3.13;;;;;;;;;;5486049;26;20230;-63
2024/04/11 01:29:30;;;;;;;4.05;3.05;;;;;;;;;;5483792;26;20294;-63
2024/04/11 01:31:59;;;;;;;2.55;2.35;;;;;;;;;;5483656;26;20242;-63
2024/04/11 01:34:24;;;;;;;4.07;2.83;;;;;;;;;;5483542;26;20230;-63
2024/04/11 01:36:54;;;;;;;3.47;3.00;;;;;;;;;;5486021;26;20231;-63
2024/04/11 01:39:20;;;;;;;3.70;3.40;;;;;;;;;;5483507;26;20754;-63
2024/04/11 01:41:51;;;;;;;3.80;3.47;;;;;;;;;;5485883;26;20281;-63
2024/04/11 01:44:17;;;;;;;6.15;4.22;;;;;;;;;;5483337;26;20960;-63
2024/04/11 01:46:45;;;;;;;5.65;4.07;;;;;;;;;;5422475;26;20227;-63
2024/04/11 01:49:11;;;;;;;3.13;2.83;;;;;;;;;;5483434;26;20612;-63
2024/04/11 01:51:41;;;;;;;3.58;2.90;;;;;;;;;;5485951;26;20570;-63
2024/04/11 01:54:07;;;;;;;2.72;2.45;;;;;;;;;;5483104;26;20952;-63
2024/04/11 01:56:35;;;;;;;5.15;3.30;;;;;;;;;;5486089;26;20226;-63
2024/04/11 01:59:05;;;;;;;3.33;3.10;;;;;;;;;;5482926;26;20227;-62
2024/04/11 02:01:34;;;;;;;3.97;3.58;;;;;;;;;;5485777;26;20279;-63
2024/04/11 02:04:00;;;;;;;5.53;3.95;;;;;;;;;;5483139;26;20274;-63
2024/04/11 02:06:29;;;;;;;6.10;4.15;;;;;;;;;;5485693;26;20230;-63
2024/04/11 02:08:56;;;;;;;2.95;2.75;;;;;;;;;;5421637;26;20334;-63
2024/04/11 02:11:25;;;;;;;2.83;2.50;;;;;;;;;;5484985;26;20234;-62
2024/04/11 02:13:50;;;;;;;2.15;1.95;;;;;;;;;;5482877;26;20273;-63
2024/04/11 02:16:21;;;;;;;2.88;2.63;;;;;;;;;;5485321;26;20239;-64
2024/04/11 02:18:47;;;;;;;3.13;2.63;;;;;;;;;;5482786;26;20269;-63
2024/04/11 02:21:16;;;;;;;3.40;3.10;;;;;;;;;;5485366;26;20747;-63
2024/04/11 02:23:42;;;;;;;3.25;3.00;;;;;;;;;;5482467;26;20568;-63
2024/04/11 02:26:10;;;;;;;3.95;3.65;;;;;;;;;;5484940;26;20231;-63
2024/04/11 02:28:35;;;;;;;4.25;3.85;;;;;;;;;;5482613;26;20284;-63
2024/04/11 02:31:04;;;;;;;4.13;3.67;;;;;;;;;;5483817;26;20243;-63
2024/04/11 02:33:34;;;;;;;4.00;3.05;;;;;;;;;;5482377;26;20712;-64
2024/04/11 02:36:06;;;;;;;2.22;2.03;;;;;;;;;;5486982;26;20235;-63
2024/04/11 02:38:31;;;;;;;3.75;2.75;;;;;;;;;;5486467;26;20231;-63
2024/04/11 02:41:00;;;;;;;2.60;2.20;;;;;;;;;;5488586;26;20283;-62
2024/04/11 02:43:25;;;;;;;2.67;2.08;;;;;;;;;;5486003;26;20265;-63
2024/04/11 02:45:57;;;;;;;2.95;1.92;;;;;;;;;;5488515;26;20231;-63
2024/04/11 02:48:23;;;;;;;4.00;3.25;;;;;;;;;;5486117;26;20266;-63
2024/04/11 02:50:54;;;;;;;2.90;2.17;;;;;;;;;;5488445;26;20230;-63
2024/04/11 02:53:22;;;;;;;3.05;2.20;;;;;;;;;;5485571;26;20302;-62
2024/04/11 02:55:51;;;;;;;3.15;2.42;;;;;;;;;;5488599;26;20231;-63
2024/04/11 02:58:16;;;;;;;6.63;6.03;;;;;;;;;;5485914;26;20365;-63
2024/04/11 03:00:46;;;;;;;10.25;9.43;;;;;;;;;;5488463;26;20238;-63
2024/04/11 03:03:11;;;;;;;9.90;9.00;;;;;;;;;;5485784;26;20684;-63
2024/04/11 03:05:40;;;;;;;10.20;9.35;;;;;;;;;;5488398;26;20302;-63
2024/04/11 03:08:09;;;;;;;12.20;11.20;;;;;;;;;;5485542;26;20761;-63
2024/04/11 03:10:39;;;;;;;14.13;12.82;;;;;;;;;;5424890;26;20862;-62
2024/04/11 03:13:04;;;;;;;12.40;11.30;;;;;;;;;;5485618;26;20299;-62
2024/04/11 03:15:32;;;;;;;9.10;8.20;;;;;;;;;;5487972;26;20231;-63
2024/04/11 03:17:58;;;;;;;6.10;5.63;;;;;;;;;;5485506;26;20307;-63
2024/04/11 03:20:26;;;;;;;4.93;4.63;;;;;;;;;;5488128;26;20230;-63
2024/04/11 03:22:52;;;;;;;5.05;4.65;;;;;;;;;;5485474;26;20638;-63
2024/04/11 03:25:22;;;;;;;4.85;4.45;;;;;;;;;;5488210;26;20227;-63
2024/04/11 03:27:48;;;;;;;4.50;4.10;;;;;;;;;;5485517;26;20239;-63
2024/04/11 03:30:16;;;;;;;4.28;3.88;;;;;;;;;;5487423;26;20318;-62
2024/04/11 03:32:42;;;;;;;5.03;4.45;;;;;;;;;;5485097;26;20250;-62
2024/04/11 03:35:11;;;;;;;3.55;3.25;;;;;;;;;;5487600;26;20338;-62
2024/04/11 03:37:36;;;;;;;3.53;3.22;;;;;;;;;;5484610;26;20231;-62
2024/04/11 03:40:04;;;;;;;2.53;2.33;;;;;;;;;;5487165;26;20281;-62
2024/04/11 03:42:36;;;;;;;3.70;3.40;;;;;;;;;;5451471;26;20273;-62
2024/04/11 03:45:11;;;;;;;3.25;3.00;;;;;;;;;;5484766;26;20230;-63
2024/04/11 03:47:37;;;;;;;3.15;2.95;;;;;;;;;;5425490;26;20285;-63
2024/04/11 03:50:06;;;;;;;4.40;4.05;;;;;;;;;;5453988;26;20271;-64
2024/04/11 03:52:32;;;;;;;4.20;3.90;;;;;;;;;;5484840;26;20250;-61
2024/04/11 03:55:01;;;;;;;6.28;4.95;;;;;;;;;;5487172;26;20273;-62
2024/04/11 03:57:28;;;;;;;6.30;5.07;;;;;;;;;;5484951;26;20231;-64
2024/04/11 03:59:58;;;;;;;5.03;4.10;;;;;;;;;;5487146;26;20278;-63
2024/04/11 04:02:24;;;;;;;3.65;3.28;;;;;;;;;;5485265;26;20231;-62
2024/04/11 04:04:53;;;;;;;3.50;3.20;;;;;;;;;;5487156;26;20219;-62
2024/04/11 04:07:19;;;;;;;3.97;3.63;;;;;;;;;;5484630;26;20230;-62
2024/04/11 04:09:48;;;;;;;2.95;2.75;;;;;;;;;;5487215;26;20231;-62
2024/04/11 04:12:16;;;;;;;3.67;3.22;;;;;;;;;;5485216;26;20277;-62
2024/04/11 04:14:45;;;;;;;3.10;2.78;;;;;;;;;;5487236;26;20327;-62
2024/04/11 04:17:13;;;;;;;3.88;3.42;;;;;;;;;;5484425;26;20222;-62
2024/04/11 04:19:41;;;;;;;4.40;3.10;;;;;;;;;;5486775;26;20262;-62
2024/04/11 04:22:13;;;;;;;3.63;3.30;;;;;;;;;;5451019;26;20227;-63
2024/04/11 04:24:41;;;;;;;3.47;3.15;;;;;;;;;;5486694;26;20291;-63
2024/04/11 04:27:07;;;;;;;2.20;2.00;;;;;;;;;;5483871;26;20269;-63
2024/04/11 04:29:37;;;;;;;5.07;3.60;;;;;;;;;;5486855;26;20579;-63
2024/04/11 04:32:03;;;;;;;5.95;5.35;;;;;;;;;;5484141;26;20298;-62
2024/04/11 04:34:34;;;;;;;6.70;6.15;;;;;;;;;;5453172;26;20219;-62
2024/04/11 04:37:00;;;;;;;6.82;6.25;;;;;;;;;;5484128;26;20654;-62
2024/04/11 04:39:41;;;;;;;7.88;7.15;;;;;;;;;;5486581;26;20223;-61
2024/04/11 04:42:07;;;;;;;11.38;10.38;;;;;;;;;;5484034;26;20978;-62
2024/04/11 04:44:37;;;;;;;10.10;9.20;;;;;;;;;;5486577;26;20621;-62
2024/04/11 04:47:06;;;;;;;11.30;10.18;;;;;;;;;;5483414;26;20227;-62
2024/04/11 04:49:46;;;;;;;11.57;10.52;;;;;;;;;;5486074;26;20230;-62
2024/04/11 04:52:13;;;;;;;11.23;10.10;;;;;;;;;;5483780;26;20234;-61
2024/04/11 04:54:41;;;;;;;8.77;7.43;;;;;;;;;;5486443;26;20695;-61
2024/04/11 04:57:06;;;;;;;10.32;8.57;;;;;;;;;;5483309;26;20269;-61
2024/04/11 04:59:35;;;;;;;9.00;8.23;;;;;;;;;;5484803;26;20227;-61
2024/04/11 05:02:03;;;;;;;10.10;9.02;;;;;;;;;;5483577;26;20243;-62
2024/04/11 05:04:29;;;;;;;9.35;8.43;;;;;;;;;;5483155;26;20226;-61
2024/04/11 05:07:00;;;;;;;6.03;5.15;;;;;;;;;;5486347;26;20281;-61
2024/04/11 05:09:26;;;;;;;6.50;5.90;;;;;;;;;;5483198;26;20227;-61
2024/04/11 05:11:54;;;;;;;6.18;5.53;;;;;;;;;;5486161;26;20347;-61
2024/04/11 05:14:20;;;;;;;5.22;4.72;;;;;;;;;;5483386;26;20788;-61
2024/04/11 05:16:50;;;;;;;5.80;3.42;;;;;;;;;;5485884;26;20272;-61
2024/04/11 05:19:17;;;;;;;3.25;3.00;;;;;;;;;;5483577;26;20322;-61
2024/04/11 05:21:46;;;;;;;3.63;2.97;;;;;;;;;;5485652;26;20279;-61
2024/04/11 05:24:15;;;;;;;5.22;3.10;;;;;;;;;;5483432;26;20353;-61
2024/04/11 05:26:48;;;;;;;4.93;2.95;;;;;;;;;;5485684;26;20231;-60
2024/04/11 05:29:15;;;;;;;3.13;2.42;;;;;;;;;;5420112;26;20700;-60
2024/04/11 05:31:44;;;;;;;2.38;2.15;;;;;;;;;;5483452;26;20773;-60
2024/04/11 05:34:13;;;;;;;11.82;9.60;;;;;;;;;;5483299;26;20269;-60
2024/04/11 05:36:44;;;;;;;7.03;6.28;;;;;;;;;;5485521;26;20304;-60
2024/04/11 05:39:10;;;;;;;4.93;4.50;;;;;;;;;;5482868;26;20278;-59
2024/04/11 05:41:43;;;;;;;6.05;5.55;;;;;;;;;;5485428;26;20226;-59
2024/04/11 05:44:08;;;;;;;35.03;29.48;;;;;;;;;;5482701;26;20708;-59
2024/04/11 05:46:37;;;;;;;23.38;18.55;;;;;;;;;;5485651;26;20285;-60
2024/04/11 05:49:04;;;;;;;21.52;18.75;;;;;;;;;;5482822;26;20223;-59
2024/04/11 05:51:35;;;;;;;23.25;20.13;;;;;;;;;;5485442;26;20238;-59
2024/04/11 05:54:01;;;;;;;20.70;17.80;;;;;;;;;;5482184;26;20747;-59
2024/04/11 05:56:30;;;;;;;12.93;9.50;;;;;;;;;;5484979;26;20334;-59
2024/04/11 05:58:59;;;;;;;7.85;6.68;;;;;;;;;;5482892;26;20270;-59
2024/04/11 06:01:33;;;;;;;68.35;57.50;;;;;;;;;;5485053;26;20392;-58
2024/04/11 06:03:59;;;;;;;19.45;17.45;;;;;;;;;;5482238;26;20695;-58
2024/04/11 06:06:27;;;;;;;6.72;6.03;;;;;;;;;;5485060;26;20273;-58
2024/04/11 06:08:55;;;;;;;6.47;4.40;;;;;;;;;;5449603;26;20219;-59
2024/04/11 06:11:23;;;;;;;3.35;3.05;;;;;;;;;;5488670;26;20230;-59
2024/04/11 06:13:48;;;;;;;2.80;2.25;;;;;;;;;;5486078;26;20223;-59
2024/04/11 06:16:19;;;;;;;4.13;3.75;;;;;;;;;;5488496;26;20277;-59
2024/04/11 06:18:45;;;;;;;2.60;2.10;;;;;;;;;;5485994;26;20270;-59
2024/04/11 06:21:18;;;;;;;3.33;2.25;;;;;;;;;;5425336;26;20227;-59
2024/04/11 06:23:44;;;;;;;3.47;2.97;;;;;;;;;;5485746;26;20230;-59
2024/04/11 06:26:13;;;;;;;6.05;3.72;;;;;;;;;;5488451;26;20223;-60
2024/04/11 06:28:38;;;;;;;3.78;2.50;;;;;;;;;;5485783;26;20227;-58
2024/04/11 06:31:08;;;;;;;3.67;3.28;;;;;;;;;;5487015;26;20278;-59
2024/04/11 06:33:40;;;;;;;8.48;5.65;;;;;;;;;;5485874;26;20286;-59
2024/04/11 06:36:10;;;;;;;38.60;30.70;;;;;;;;;;5487740;26;20227;-60
2024/04/11 06:38:36;;;;;;;25.08;22.42;;;;;;;;;;5485953;26;20269;-58
2024/04/11 06:41:08;;;;;;;12.60;11.30;;;;;;;;;;5424731;26;20231;-59
2024/04/11 06:43:34;;;;;;;6.88;6.15;;;;;;;;;;5485673;26;20230;-59
2024/04/11 06:46:06;;;;;;;4.78;4.28;;;;;;;;;;5487780;26;20753;-59
2024/04/11 06:48:32;;;;;;;26.77;21.88;;;;;;;;;;5485395;26;20987;-59
2024/04/11 06:51:06;;;;;;;14.77;12.75;;;;;;;;;;5488016;26;20330;-58
2024/04/11 06:53:32;;;;;;;4.15;3.67;;;;;;;;;;5484968;26;20254;-58
2024/04/11 06:56:00;;;;;;;9.63;7.75;;;;;;;;;;5454815;26;20964;-58
2024/04/11 06:58:26;;;;;;;6.03;5.32;;;;;;;;;;5485130;26;20295;-58
2024/04/11 07:00:59;;;;;;;5.80;3.88;;;;;;;;;;5487820;26;20273;-57
2024/04/11 07:03:26;;;;;;;4.50;3.28;;;;;;;;;;5484925;26;20227;-58
2024/04/11 07:05:55;;;;;;;6.55;3.33;;;;;;;;;;5487725;26;20226;-56
2024/04/11 07:08:29;;;;;;;5.35;3.13;;;;;;;;;;5485129;26;20360;-58
2024/04/11 07:10:58;;;;;;;5.90;5.40;;;;;;;;;;5487560;26;20269;-57
2024/04/11 07:13:24;;;;;;;5.05;3.03;;;;;;;;;;5485240;26;20269;-58
2024/04/11 07:15:56;;;;;;;4.72;2.90;;;;;;;;;;5487370;26;20223;-57
2024/04/11 07:18:33;;;;;;;4.05;2.70;;;;;;;;;;5485107;26;20231;-58
2024/04/11 07:21:07;;;;;;;4.35;2.75;;;;;;;;;;5486068;26;20257;-58
2024/04/11 07:23:35;;;;;;;8.23;5.32;;;;;;;;;;5484795;26;20227;-59
2024/04/11 07:26:09;;;;;;;3.42;2.40;;;;;;;;;;5487454;26;20227;-58
2024/04/11 07:28:36;;;;;;;3.33;1.80;;;;;;;;;;5484897;26;20265;-58
2024/04/11 07:31:04;;;;;;;4.18;2.72;;;;;;;;;;5485850;26;20303;-58
2024/04/11 07:33:30;;;;;;;5.78;3.13;;;;;;;;;;5484478;26;20636;-59
2024/04/11 07:35:58;;;;;;;1.80;1.60;;;;;;;;;;5486916;26;20235;-58
2024/04/11 07:38:26;;;;;;;2.72;1.30;;;;;;;;;;5484826;26;20342;-58
2024/04/11 07:40:59;;;;;;;2.45;1.15;;;;;;;;;;5487085;26;20231;-58
2024/04/11 07:43:26;;;;;;;2.28;1.10;;;;;;;;;;5484334;26;20312;-58
2024/04/11 07:45:55;;;;;;;1.20;1.10;;;;;;;;;;5453910;26;20219;-58
2024/04/11 07:48:23;;;;;;;1.48;0.90;;;;;;;;;;5484444;26;20290;-59
2024/04/11 07:50:52;;;;;;;1.40;0.90;;;;;;;;;;5487065;26;20286;-58
2024/04/11 07:53:18;;;;;;;2.05;1.00;;;;;;;;;;5484539;26;20247;-58
2024/04/11 07:55:49;;;;;;;0.95;0.95;;;;;;;;;;5487142;26;20232;-58
2024/04/11 07:58:18;;;;;;;2.97;1.15;;;;;;;;;;5485318;26;20750;-59
2024/04/11 08:00:54;;;;;;;1.75;1.55;;;;;;;;;;5487440;26;21022;-58
2024/04/11 08:03:20;;;;;;;3.65;1.10;;;;;;;;;;5484480;26;20596;-58
2024/04/11 08:05:48;;;;;;;1.10;0.93;;;;;;;;;;5486753;26;20239;-58
2024/04/11 08:08:15;;;;;;;2.45;0.90;;;;;;;;;;5484284;26;20230;-59
2024/04/11 08:10:43;;;;;;;1.90;1.65;;;;;;;;;;5486421;26;20269;-58
2024/04/11 08:13:09;;;;;;;2.55;1.30;;;;;;;;;;5483973;26;20569;-59
2024/04/11 08:15:39;;;;;;;4.07;1.23;;;;;;;;;;5486422;26;20304;-58
2024/04/11 08:18:06;;;;;;;1.63;1.00;;;;;;;;;;5484143;26;20708;-59
2024/04/11 08:20:34;;;;;;;1.15;1.05;;;;;;;;;;5486906;26;20280;-59
2024/04/11 08:22:59;;;;;;;3.00;1.00;;;;;;;;;;5483933;26;20330;-59
2024/04/11 08:25:28;;;;;;;1.58;0.80;;;;;;;;;;5486561;26;20239;-59
2024/04/11 08:27:55;;;;;;;2.25;1.00;;;;;;;;;;5484355;26;20227;-59
2024/04/11 08:30:23;;;;;;;1.15;0.95;;;;;;;;;;5486002;26;20269;-58
2024/04/11 08:32:52;;;;;;;1.15;0.95;;;;;;;;;;5483983;26;20270;-59
2024/04/11 08:35:20;;;;;;;9.20;1.30;;;;;;;;;;5486659;26;20218;-59
2024/04/11 08:37:46;;;;;;;3.28;1.15;;;;;;;;;;5483608;26;20234;-59
2024/04/11 08:40:14;;;;;;;1.95;0.90;;;;;;;;;;5486158;26;20269;-59
2024/04/11 08:42:41;;;;;;;0.50;0.50;;;;;;;;;;5483877;26;21075;-59
2024/04/11 08:45:09;;;;;;;2.03;1.00;;;;;;;;;;5486261;26;20227;-58
2024/04/11 08:47:35;;;;;;;1.67;1.00;;;;;;;;;;5483892;26;20223;-59
2024/04/11 08:50:07;;;;;;;3.45;1.10;;;;;;;;;;5486107;26;20273;-59
2024/04/11 08:52:34;;;;;;;2.25;1.17;;;;;;;;;;5483770;26;20247;-58
2024/04/11 08:55:02;;;;;;;9.45;8.55;;;;;;;;;;5486053;26;20307;-58
2024/04/11 08:57:28;;;;;;;9.45;8.65;;;;;;;;;;5483463;26;20257;-58
2024/04/11 08:59:57;;;;;;;5.07;4.50;;;;;;;;;;5486192;26;20253;-58
2024/04/11 09:02:23;;;;;;;1.42;1.20;;;;;;;;;;5483683;26;20277;-58
2024/04/11 09:04:53;;;;;;;2.70;1.20;;;;;;;;;;5422588;26;20227;-58
2024/04/11 09:07:21;;;;;;;1.95;1.20;;;;;;;;;;5483341;26;20606;-58
2024/04/11 09:09:50;;;;;;;8.93;4.57;;;;;;;;;;5485856;26;20628;-58
2024/04/11 09:12:16;;;;;;;1.42;1.20;;;;;;;;;;5483118;26;20227;-58
2024/04/11 09:14:46;;;;;;;1.38;1.27;;;;;;;;;;5485670;26;20227;-58
2024/04/11 09:17:13;;;;;;;1.85;1.38;;;;;;;;;;5483149;26;20684;-59
2024/04/11 09:19:42;;;;;;;1.40;1.30;;;;;;;;;;5485814;26;20261;-58
2024/04/11 09:22:08;;;;;;;1.35;1.08;;;;;;;;;;5483143;26;20371;-59
2024/04/11 09:24:41;;;;;;;2.28;1.90;;;;;;;;;;5485831;26;20222;-59
2024/04/11 09:27:07;;;;;;;5.50;1.70;;;;;;;;;;5482889;26;20294;-58
2024/04/11 09:29:36;;;;;;;0.80;0.80;;;;;;;;;;5485697;26;20328;-55
2024/04/11 09:32:03;;;;;;;0.85;0.85;;;;;;;;;;5482968;26;21235;-58
2024/04/11 09:34:32;;;;;;;3.08;1.30;;;;;;;;;;5485732;26;20235;-59
2024/04/11 09:36:59;;;;;;;1.88;1.08;;;;;;;;;;5483177;26;20227;-58
2024/04/11 09:42:17;;;;;;;1.48;1.30;;;;;;;;;;5482871;26;20644;-58
2024/04/11 09:44:47;;;;;;;1.35;1.10;;;;;;;;;;5481914;26;20262;-58
2024/04/11 09:47:18;;;;;;;0.80;0.80;;;;;;;;;;5421583;26;20234;-59
2024/04/11 09:49:53;;;;;;;0.75;0.65;;;;;;;;;;5482993;26;20266;-59
2024/04/11 09:52:22;;;;;;;0.93;0.93;;;;;;;;;;5485030;26;20365;-59
2024/04/11 09:54:51;;;;;;;0.70;0.70;;;;;;;;;;5482750;26;20277;-59
2024/04/11 09:57:23;;;;;;;1.17;1.08;;;;;;;;;;5485463;26;20230;-59
2024/04/11 09:59:49;;;;;;;1.33;0.65;;;;;;;;;;5482672;26;20231;-58
2024/04/11 10:02:18;;;;;;;1.63;1.20;;;;;;;;;;5485260;26;20608;-59
2024/04/11 10:04:44;;;;;;;1.63;1.52;;;;;;;;;;5482775;26;20260;-59
2024/04/11 10:07:16;;;;;;;1.42;0.73;;;;;;;;;;5484893;26;20231;-59
2024/04/11 10:09:47;;;;;;;0.80;0.80;;;;;;;;;;5482166;26;20231;-58
2024/04/11 10:12:18;;;;;;;1.45;0.90;;;;;;;;;;5451731;26;20262;-58
2024/04/11 10:14:48;;;;;;;1.48;1.13;;;;;;;;;;5482381;26;20230;-59
2024/04/11 10:17:17;;;;;;;1.35;0.90;;;;;;;;;;5485021;26;20937;-58
2024/04/11 10:19:43;;;;;;;1.42;0.93;;;;;;;;;;5482190;26;20703;-59
2024/04/11 10:22:15;;;;;;;39.58;35.28;;;;;;;;;;5484550;26;20226;-59
2024/04/11 10:24:44;;;;;;;10.82;9.32;;;;;;;;;;5482110;26;20695;-59
2024/04/11 10:27:14;;;;;;;18.30;15.32;;;;;;;;;;5484548;26;20226;-59
2024/04/11 10:29:43;;;;;;;6.95;6.28;;;;;;;;;;5481928;26;20334;-59
2024/04/11 10:32:21;;;;;;;3.25;2.35;;;;;;;;;;5482383;26;20243;-59
2024/04/11 10:34:48;;;;;;;3.35;1.60;;;;;;;;;;5482071;26;20711;-59
2024/04/11 10:37:23;;;;;;;1.33;1.00;;;;;;;;;;5484690;26;20261;-59
2024/04/11 10:39:54;;;;;;;1.13;1.00;;;;;;;;;;5481888;26;20246;-59
2024/04/11 10:42:27;;;;;;;1.55;0.90;;;;;;;;;;5484592;26;20259;-58
2024/04/11 10:44:53;;;;;;;1.98;0.80;;;;;;;;;;5482049;26;20274;-59
2024/04/11 10:47:25;;;;;;;1.17;1.02;;;;;;;;;;5484340;26;20281;-59
2024/04/11 10:49:51;;;;;;;1.88;1.30;;;;;;;;;;5481984;26;20332;-59
2024/04/11 10:52:21;;;;;;;1.00;0.90;;;;;;;;;;5483916;26;20238;-59
2024/04/11 10:54:50;;;;;;;1.02;0.93;;;;;;;;;;5481995;26;20283;-59
2024/04/11 10:57:19;;;;;;;1.17;0.80;;;;;;;;;;5486830;26;20317;-59
2024/04/11 10:59:50;;;;;;;0.82;0.82;;;;;;;;;;5485316;26;20557;-59
2024/04/11 11:02:19;;;;;;;3.05;1.58;;;;;;;;;;5488014;26;20230;-59
2024/04/11 11:04:50;;;;;;;2.28;0.90;;;;;;;;;;5485219;26;20269;-59
2024/04/11 11:07:21;;;;;;;1.17;0.70;;;;;;;;;;5488120;26;20226;-58
2024/04/11 11:09:51;;;;;;;0.88;0.80;;;;;;;;;;5485373;26;20227;-59
2024/04/11 11:12:23;;;;;;;1.05;0.85;;;;;;;;;;5487766;26;20227;-59
2024/04/11 11:14:49;;;;;;;1.75;0.60;;;;;;;;;;5485229;26;20273;-58
2024/04/11 11:17:19;;;;;;;0.95;0.85;;;;;;;;;;5487661;26;20281;-59
2024/04/11 11:19:49;;;;;;;6.82;6.13;;;;;;;;;;5485016;26;20277;-59
2024/04/11 11:22:18;;;;;;;6.25;5.47;;;;;;;;;;5487699;26;20563;-59
2024/04/11 11:24:44;;;;;;;1.38;1.27;;;;;;;;;;5485282;26;20231;-59
2024/04/11 11:27:12;;;;;;;1.30;1.20;;;;;;;;;;5487648;26;20766;-59
2024/04/11 11:29:42;;;;;;;1.40;1.30;;;;;;;;;;5485032;26;20227;-59
2024/04/11 11:32:18;;;;;;;6.65;1.05;;;;;;;;;;5485202;26;20283;-59
2024/04/11 11:34:44;;;;;;;1.25;1.15;;;;;;;;;;5484996;26;20334;-59
2024/04/11 11:37:17;;;;;;;1.85;1.20;;;;;;;;;;5487426;26;20238;-59
2024/04/11 11:39:42;;;;;;;1.40;1.30;;;;;;;;;;5484778;26;20226;-58
2024/04/11 11:42:22;;;;;;;2.58;1.38;;;;;;;;;;5487781;26;20286;-59
2024/04/11 11:47:35;;;;;;;1.80;1.50;;;;;;;;;;5483920;26;20254;-59
2024/04/11 11:50:01;;;;;;;1.83;1.00;;;;;;;;;;5484796;26;20231;-58
2024/04/11 11:52:39;;;;;;;1.85;0.95;;;;;;;;;;5487105;26;20258;-59
2024/04/11 11:55:05;;;;;;;1.00;1.00;;;;;;;;;;5484339;26;20231;-59
2024/04/11 11:57:39;;;;;;;1.10;1.00;;;;;;;;;;5486989;26;20645;-59
2024/04/11 12:00:18;;;;;;;1.23;1.10;;;;;;;;;;5425444;26;20230;-58
2024/04/11 12:02:50;;;;;;;1.45;1.15;;;;;;;;;;5486913;26;20273;-59
2024/04/11 12:05:16;;;;;;;1.10;1.00;;;;;;;;;;5484856;26;20231;-58
2024/04/11 12:07:50;;;;;;;0.90;0.90;;;;;;;;;;5486300;26;20262;-58
2024/04/11 12:10:16;;;;;;;0.80;0.80;;;;;;;;;;5484749;26;20223;-59
2024/04/11 12:12:48;;;;;;;1.20;0.90;;;;;;;;;;5486759;26;20271;-58
2024/04/11 12:15:14;;;;;;;1.65;0.90;;;;;;;;;;5484753;26;20261;-59
2024/04/11 12:17:43;;;;;;;1.13;0.95;;;;;;;;;;5486818;26;20231;-59
2024/04/11 12:20:15;;;;;;;1.58;1.05;;;;;;;;;;5450942;26;20223;-58
2024/04/11 12:22:44;;;;;;;6.53;5.60;;;;;;;;;;5486706;26;20235;-58
2024/04/11 12:25:12;;;;;;;3.35;3.15;;;;;;;;;;5484139;26;20582;-59
2024/04/11 12:27:43;;;;;;;3.42;1.00;;;;;;;;;;5486912;26;20223;-59
2024/04/11 12:30:09;;;;;;;1.58;1.42;;;;;;;;;;5423218;26;20794;-59
2024/04/11 12:32:41;;;;;;;1.48;1.17;;;;;;;;;;5423593;26;20231;-59
2024/04/11 12:35:07;;;;;;;1.58;1.27;;;;;;;;;;5483819;26;20327;-59
2024/04/11 12:37:37;;;;;;;3.20;1.80;;;;;;;;;;5423075;26;20238;-59
2024/04/11 12:40:06;;;;;;;1.02;0.90;;;;;;;;;;5483830;26;20336;-58
2024/04/11 12:42:38;;;;;;;1.23;1.13;;;;;;;;;;5486435;26;20222;-59
2024/04/11 12:45:07;;;;;;;0.95;0.90;;;;;;;;;;5483895;26;20299;-59
2024/04/11 12:47:48;;;;;;;2.40;1.77;;;;;;;;;;5486265;26;20339;-59
2024/04/11 12:50:13;;;;;;;1.92;1.83;;;;;;;;;;5483645;26;20708;-59
2024/04/11 12:52:44;;;;;;;1.13;1.00;;;;;;;;;;5486143;26;20284;-59
2024/04/11 12:55:10;;;;;;;1.58;1.30;;;;;;;;;;5483693;26;20290;-59
2024/04/11 12:57:41;;;;;;;1.75;0.90;;;;;;;;;;5486347;26;20700;-59
2024/04/11 13:00:09;;;;;;;1.30;1.02;;;;;;;;;;5483653;26;20803;-59
2024/04/11 13:02:39;;;;;;;1.00;0.90;;;;;;;;;;5486274;26;20222;-58
2024/04/11 13:05:05;;;;;;;1.75;1.17;;;;;;;;;;5483523;26;21500;-59
2024/04/11 13:07:34;;;;;;;1.20;1.10;;;;;;;;;;5485944;26;20316;-59
2024/04/11 13:10:07;;;;;;;1.23;0.90;;;;;;;;;;5483401;26;20321;-59
2024/04/11 13:12:36;;;;;;;1.13;1.00;;;;;;;;;;5485881;26;20730;-59
2024/04/11 13:15:08;;;;;;;1.33;1.20;;;;;;;;;;5483078;26;20231;-59
2024/04/11 13:17:36;;;;;;;2.42;1.40;;;;;;;;;;5452488;26;20270;-59
2024/04/11 13:20:11;;;;;;;1.10;1.00;;;;;;;;;;5481878;26;20725;-60
2024/04/11 13:22:41;;;;;;;2.38;1.20;;;;;;;;;;5485811;26;20276;-59
2024/04/11 13:25:17;;;;;;;1.83;1.00;;;;;;;;;;5483117;26;20342;-59
2024/04/11 13:27:45;;;;;;;1.17;1.08;;;;;;;;;;5485517;26;20234;-59
2024/04/11 13:30:14;;;;;;;1.13;1.02;;;;;;;;;;5483135;26;20231;-59
2024/04/11 13:32:48;;;;;;;1.48;0.85;;;;;;;;;;5485664;26;20720;-59
2024/04/11 13:35:14;;;;;;;1.10;1.00;;;;;;;;;;5482997;26;20260;-59
2024/04/11 13:37:47;;;;;;;3.60;1.30;;;;;;;;;;5485349;26;20231;-58
2024/04/11 13:43:00;;;;;;;1.20;1.10;;;;;;;;;;5485456;26;20326;-59
2024/04/11 13:45:35;;;;;;;1.08;0.98;;;;;;;;;;5482947;26;20231;-59
2024/04/11 13:48:01;;;;;;;1.10;1.00;;;;;;;;;;5482750;26;20268;-59
2024/04/11 13:50:43;;;;;;;1.25;1.08;;;;;;;;;;5485152;26;20568;-60
2024/04/11 13:53:14;;;;;;;1.10;1.00;;;;;;;;;;5449084;26;20811;-59
2024/04/11 13:55:41;;;;;;;2.05;1.15;;;;;;;;;;5482823;26;20576;-59
2024/04/11 13:58:10;;;;;;;3.13;0.95;;;;;;;;;;5422479;26;20231;-59
2024/04/11 14:00:50;;;;;;;1.10;1.00;;;;;;;;;;5482991;26;20606;-59
2024/04/11 14:03:36;;;;;;;1.38;1.20;;;;;;;;;;5484953;26;20230;-59
2024/04/11 14:06:22;;;;;;;1.25;1.10;;;;;;;;;;5482190;26;21087;-59
2024/04/11 14:08:50;;;;;;;2.72;1.00;;;;;;;;;;5485085;26;20714;-59
2024/04/11 14:11:17;;;;;;;1.60;0.93;;;;;;;;;;5482488;26;20268;-59
2024/04/11 14:13:48;;;;;;;2.38;1.25;;;;;;;;;;5484851;26;20231;-59
2024/04/11 14:16:16;;;;;;;1.45;1.20;;;;;;;;;;5482380;26;20271;-59
2024/04/11 14:18:47;;;;;;;2.60;0.98;;;;;;;;;;5451139;26;20223;-59
2024/04/11 14:21:21;;;;;;;1.20;1.10;;;;;;;;;;5482389;26;20322;-60
2024/04/11 14:23:52;;;;;;;1.30;1.10;;;;;;;;;;5425924;26;20269;-60
2024/04/11 14:26:35;;;;;;;1.75;1.40;;;;;;;;;;5482460;26;20368;-60
2024/04/11 14:29:06;;;;;;;1.17;1.08;;;;;;;;;;5451480;26;20287;-59
2024/04/11 14:31:34;;;;;;;1.73;1.20;;;;;;;;;;5451336;26;20238;-59
2024/04/11 14:37:09;;;;;;;3.08;1.20;;;;;;;;;;5488347;26;20268;-60
2024/04/11 14:39:35;;;;;;;1.27;1.10;;;;;;;;;;5485638;26;20231;-59
2024/04/11 14:42:04;;;;;;;1.40;1.30;;;;;;;;;;5488019;26;20227;-60
2024/04/11 14:44:32;;;;;;;2.33;1.30;;;;;;;;;;5485243;26;20557;-59
2024/04/11 14:47:03;;;;;;;1.65;1.20;;;;;;;;;;5488013;26;20226;-59
2024/04/11 14:49:28;;;;;;;1.55;1.35;;;;;;;;;;5485624;26;20227;-59
2024/04/11 14:51:57;;;;;;;1.40;1.30;;;;;;;;;;5487940;26;20375;-59
2024/04/11 14:54:26;;;;;;;2.67;1.30;;;;;;;;;;5485544;26;20814;-59
2024/04/11 14:56:55;;;;;;;2.13;1.27;;;;;;;;;;5488280;26;20235;-59
2024/04/11 14:59:26;;;;;;;2.08;1.23;;;;;;;;;;5485501;26;20227;-59
2024/04/11 15:01:55;;;;;;;2.15;1.25;;;;;;;;;;5487919;26;20231;-59